Overview Statistics Trail Chart Weather Telemetry Raw packets
 

This is the latest recevied weather packets stored in our database for station/object OE6JUE. If no packets are shown the sender has not sent any weather packets the latest 10 day(s).

<< 91 92 93 94 95 96 97 >>
Time Temp. Humidity Pressure Rain* Wind** Luminosity Snow
1788016115 27.22° C 37% 1018.2 hPa 0 mm - - -
1788015815 28.33° C 33% 1018.5 hPa 0 mm - - -
1788015515 28.33° C 34% 1018.4 hPa 0 mm - - -
1788015215 28.33° C 33% 1018.5 hPa 0 mm - - -
1788014915 28.33° C 33% 1018.5 hPa 0 mm - - -
1788014615 27.22° C 38% 1018.3 hPa 0 mm - - -
1788014315 27.22° C 35% 1018.4 hPa 0 mm - - -
1788014015 27.22° C 35% 1018.4 hPa 0 mm - - -
1788013715 27.22° C 34% 1018.5 hPa 0 mm - - -
1788013415 27.22° C 34% 1018.6 hPa 0 mm - - -
1788013184 27.22° C 36% 1018.5 hPa 0 mm - - -
1788012215 28.33° C 32% 1018.6 hPa 0 mm - - -
1788011922 28.33° C 33% 1018.6 hPa 0 mm - - -
1788011615 28.89° C 33% 1018.7 hPa 0 mm - - -
1788011315 28.89° C 33% 1018.8 hPa 0 mm - - -
1788011020 28.33° C 33% 1018.9 hPa 0 mm - - -
1788010715 27.78° C 33% 1018.9 hPa 0 mm - - -
1788010415 27.22° C 38% 1018.9 hPa 0 mm - - -
1788010115 26.67° C 39% 1018.9 hPa 0 mm - - -
1788009815 26.67° C 38% 1018.9 hPa 0 mm - - -
1788009515 26.67° C 38% 1019.1 hPa 0 mm - - -
1788009214 27.22° C 40% 1019.1 hPa 0 mm - - -
1788008915 27.78° C 36% 1019.1 hPa 0 mm - - -
1788008614 27.22° C 40% 1019 hPa 0 mm - - -
1788008315 26.67° C 41% 1019.2 hPa 0 mm - - -

* Rain latest hour (hover to see other rain measurements)
** Current wind speed in m/s (hover to see current wind gust speed)